createdAt,value
2023-03-03T00:00:13.120Z,32.70
2023-03-03T00:02:14.630Z,27.25
2023-03-03T00:04:16.096Z,29.38
2023-03-03T00:06:17.913Z,30.42
2023-03-03T00:08:20.078Z,38.22
2023-03-03T00:10:21.556Z,35.60
2023-03-03T00:12:28.886Z,28.33
2023-03-03T00:14:32.907Z,27.45
2023-03-03T00:16:39.072Z,26.38
2023-03-03T00:18:43.917Z,27.77
2023-03-03T00:20:50.259Z,26.35
2023-03-03T00:22:51.924Z,27.00
2023-03-03T00:24:54.019Z,28.75
2023-03-03T00:27:00.749Z,29.55
2023-03-03T00:29:02.942Z,28.88
2023-03-03T00:31:16.617Z,32.10
2023-03-03T00:33:32.419Z,26.95
2023-03-03T00:35:35.759Z,29.27
2023-03-03T00:37:41.218Z,31.17
2023-03-03T00:39:42.669Z,36.85
2023-03-03T00:41:44.370Z,27.77
2023-03-03T00:43:45.824Z,29.85
2023-03-03T00:45:55.824Z,27.58
2023-03-03T00:47:58.423Z,30.63
2023-03-03T00:50:05.874Z,30.35
2023-03-03T00:52:18.526Z,35.60
2023-03-03T00:54:20.078Z,34.22
2023-03-03T00:56:21.635Z,37.03
2023-03-03T00:58:25.125Z,35.00
2023-03-03T01:00:26.619Z,39.92
2023-03-03T01:02:28.223Z,36.08
2023-03-03T01:04:29.754Z,32.65
2023-03-03T01:06:31.184Z,32.80
2023-03-03T01:08:32.980Z,35.20
2023-03-03T01:10:39.169Z,28.77
2023-03-03T01:12:40.879Z,32.45
2023-03-03T01:14:42.461Z,36.55
2023-03-03T01:16:44.040Z,34.05
2023-03-03T01:18:46.006Z,35.63
2023-03-03T01:20:47.596Z,30.48
2023-03-03T01:22:49.108Z,33.85
2023-03-03T01:24:50.559Z,36.72
2023-03-03T01:26:52.016Z,33.90
2023-03-03T01:28:53.468Z,34.15
2023-03-03T01:30:55.120Z,39.10
2023-03-03T01:32:56.993Z,37.35
2023-03-03T01:34:58.483Z,33.47
2023-03-03T01:37:01.072Z,36.30
2023-03-03T01:39:02.633Z,41.33
2023-03-03T01:41:04.332Z,38.92
2023-03-03T01:43:06.044Z,38.33
2023-03-03T01:45:15.585Z,37.45
2023-03-03T01:47:24.865Z,42.55
2023-03-03T01:49:35.442Z,42.42
2023-03-03T01:51:52.610Z,39.25
2023-03-03T01:54:01.201Z,42.00
2023-03-03T01:56:05.830Z,36.33
2023-03-03T01:58:39.038Z,46.90
2023-03-03T02:00:44.541Z,38.53
2023-03-03T02:02:46.793Z,38.42
2023-03-03T02:04:49.918Z,39.88
2023-03-03T02:06:56.674Z,41.80
2023-03-03T02:09:03.859Z,47.65
2023-03-03T02:11:06.554Z,51.95
2023-03-03T02:13:08.213Z,46.35
2023-03-03T02:15:17.112Z,52.45
2023-03-03T02:17:18.692Z,45.47
2023-03-03T02:19:47.433Z,51.65
2023-03-03T02:21:48.994Z,54.83
2023-03-03T02:24:07.598Z,49.75
2023-03-03T02:26:22.784Z,51.95
2023-03-03T02:28:27.616Z,55.47
2023-03-03T02:30:29.194Z,51.92
2023-03-03T02:32:30.685Z,48.00
2023-03-03T02:34:46.908Z,46.25
2023-03-03T02:36:48.418Z,45.55
2023-03-03T02:38:59.194Z,56.90
2023-03-03T02:41:23.231Z,57.70
2023-03-03T02:43:32.503Z,68.72
2023-03-03T02:45:34.115Z,72.00
2023-03-03T02:47:35.615Z,82.47
2023-03-03T02:49:37.616Z,98.43
2023-03-03T02:51:40.211Z,102.32
2023-03-03T02:53:41.721Z,103.68
2023-03-03T02:55:43.186Z,107.88
2023-03-03T02:57:44.703Z,103.95
2023-03-03T02:59:49.621Z,108.20
2023-03-03T03:01:51.882Z,104.13
2023-03-03T03:03:53.379Z,111.90
2023-03-03T03:05:54.821Z,124.43
2023-03-03T03:07:56.288Z,117.30
2023-03-03T03:09:57.796Z,118.20
2023-03-03T03:12:02.415Z,125.65
2023-03-03T03:14:06.441Z,123.05
2023-03-03T03:16:08.275Z,132.07
2023-03-03T03:18:09.717Z,132.88
2023-03-03T03:20:11.813Z,123.40
2023-03-03T03:22:13.268Z,126.82
2023-03-03T03:24:14.755Z,132.88
2023-03-03T03:26:16.229Z,137.68
2023-03-03T03:28:18.881Z,142.63
2023-03-03T03:30:23.155Z,147.82
2023-03-03T03:32:24.738Z,136.73
2023-03-03T03:34:26.330Z,138.85
2023-03-03T03:36:28.288Z,124.72
2023-03-03T03:38:32.400Z,129.70
2023-03-03T03:40:33.887Z,125.82
2023-03-03T03:42:35.415Z,121.95
2023-03-03T03:44:37.150Z,122.82
2023-03-03T03:46:38.638Z,119.45
2023-03-03T03:48:40.168Z,118.18
2023-03-03T03:50:41.640Z,110.97
2023-03-03T03:52:43.789Z,101.47
2023-03-03T03:54:45.331Z,97.88
2023-03-03T03:56:46.845Z,92.07
2023-03-03T03:58:48.305Z,88.65
2023-03-03T04:00:49.900Z,81.15
2023-03-03T04:02:52.313Z,91.97
2023-03-03T04:04:53.978Z,77.93
2023-03-03T04:06:55.462Z,80.13
2023-03-03T04:08:57.328Z,96.25
2023-03-03T04:10:59.090Z,92.63
2023-03-03T04:13:00.752Z,75.75
2023-03-03T04:15:02.224Z,75.70
2023-03-03T04:17:03.690Z,83.75
2023-03-03T04:19:05.206Z,85.45
2023-03-03T04:21:06.684Z,82.82
2023-03-03T04:23:08.129Z,76.70
2023-03-03T04:25:14.686Z,82.93
2023-03-03T04:27:16.246Z,85.72
2023-03-03T04:29:17.674Z,81.00
2023-03-03T04:31:20.543Z,77.70
2023-03-03T04:33:22.081Z,82.90
2023-03-03T04:35:24.902Z,89.38
2023-03-03T04:37:26.575Z,96.22
2023-03-03T04:39:28.753Z,83.35
2023-03-03T04:41:30.261Z,92.70
2023-03-03T04:43:31.715Z,75.32
2023-03-03T04:45:33.299Z,72.93
2023-03-03T04:47:34.960Z,71.82
2023-03-03T04:49:37.037Z,68.38
2023-03-03T04:51:38.578Z,49.80
2023-03-03T04:53:40.082Z,45.97
2023-03-03T04:55:42.024Z,51.75
2023-03-03T04:57:43.576Z,49.55
2023-03-03T04:59:45.096Z,54.92
2023-03-03T05:01:46.702Z,49.28
2023-03-03T05:03:48.289Z,57.05
2023-03-03T05:05:50.291Z,51.50
2023-03-03T05:07:51.757Z,53.10
2023-03-03T05:09:53.223Z,56.92
2023-03-03T05:11:54.908Z,60.63
2023-03-03T05:13:56.354Z,61.03
2023-03-03T05:15:57.925Z,62.10
2023-03-03T05:17:59.623Z,60.95
2023-03-03T05:20:01.165Z,63.90
2023-03-03T05:22:02.661Z,65.60
2023-03-03T05:24:04.320Z,63.28
2023-03-03T05:26:06.094Z,65.68
2023-03-03T05:28:07.797Z,64.88
2023-03-03T05:30:11.611Z,62.03
2023-03-03T05:32:13.086Z,65.63
2023-03-03T05:34:14.573Z,54.50
2023-03-03T05:36:16.053Z,51.17
2023-03-03T05:38:17.715Z,45.20
2023-03-03T05:40:19.813Z,52.38
2023-03-03T05:42:21.940Z,52.03
2023-03-03T05:44:23.485Z,50.03
2023-03-03T05:46:24.973Z,44.40
2023-03-03T05:48:27.460Z,48.63
2023-03-03T05:50:28.940Z,51.45
2023-03-03T05:52:30.463Z,50.20
2023-03-03T05:54:32.074Z,44.63
2023-03-03T05:56:33.592Z,51.88
2023-03-03T05:58:35.068Z,54.78
2023-03-03T06:00:36.548Z,52.00
2023-03-03T06:02:38.057Z,53.30
2023-03-03T06:04:39.959Z,47.70
2023-03-03T06:06:41.630Z,60.13
2023-03-03T06:08:43.196Z,62.13
2023-03-03T06:10:44.694Z,55.33
2023-03-03T06:12:46.272Z,62.15
2023-03-03T06:14:47.768Z,71.53
2023-03-03T06:16:49.275Z,72.25
2023-03-03T06:18:50.786Z,72.25
2023-03-03T06:20:53.546Z,69.72
2023-03-03T06:22:55.094Z,74.55
2023-03-03T06:24:56.564Z,67.18
2023-03-03T06:26:58.949Z,81.43
2023-03-03T06:29:01.483Z,65.72
2023-03-03T06:31:02.994Z,69.15
2023-03-03T06:33:04.555Z,63.08
2023-03-03T06:35:06.519Z,64.75
2023-03-03T06:37:08.011Z,68.72
2023-03-03T06:39:09.455Z,71.85
2023-03-03T06:41:11.413Z,75.72
2023-03-03T06:43:13.450Z,74.88
2023-03-03T06:45:15.287Z,63.50
2023-03-03T06:47:17.145Z,68.55
2023-03-03T06:49:18.981Z,66.55
2023-03-03T06:51:30.803Z,60.67
2023-03-03T06:53:33.204Z,76.18
2023-03-03T06:55:34.674Z,79.78
2023-03-03T06:57:37.165Z,84.07
2023-03-03T06:59:38.899Z,97.53
2023-03-03T07:01:41.859Z,98.05
2023-03-03T07:03:43.802Z,92.00
2023-03-03T07:05:45.379Z,86.25
2023-03-03T07:07:46.980Z,87.72
2023-03-03T07:09:51.112Z,91.03
2023-03-03T07:11:56.778Z,95.30
2023-03-03T07:13:58.845Z,92.65
2023-03-03T07:16:06.418Z,87.75
2023-03-03T07:18:25.791Z,98.45
2023-03-03T07:20:38.313Z,83.88
2023-03-03T07:22:39.795Z,93.10
2023-03-03T07:24:43.134Z,92.03
2023-03-03T07:26:44.604Z,84.03
2023-03-03T07:29:30.488Z,87.80
2023-03-03T07:31:39.642Z,66.47
2023-03-03T07:33:46.887Z,68.50
2023-03-03T07:35:48.428Z,46.97
2023-03-03T07:37:49.948Z,44.13
2023-03-03T07:39:51.733Z,46.60
2023-03-03T07:42:00.733Z,43.60
2023-03-03T07:44:13.425Z,39.40
2023-03-03T07:46:42.893Z,33.88
2023-03-03T07:48:44.721Z,32.17
2023-03-03T07:50:46.369Z,29.63
2023-03-03T07:53:00.737Z,36.92
2023-03-03T07:55:19.884Z,33.40
2023-03-03T07:57:36.773Z,35.35
2023-03-03T07:59:50.460Z,28.55
2023-03-03T08:01:58.735Z,32.22
2023-03-03T08:04:00.502Z,26.63
2023-03-03T08:06:24.121Z,26.05
2023-03-03T08:08:37.007Z,23.02
2023-03-03T08:10:48.219Z,22.52
2023-03-03T08:12:49.756Z,24.02
2023-03-03T08:14:52.458Z,21.27
2023-03-03T08:16:53.991Z,23.90
2023-03-03T08:19:01.909Z,31.67
2023-03-03T08:21:14.685Z,23.45
2023-03-03T08:23:18.056Z,29.17
2023-03-03T08:25:19.576Z,28.90
2023-03-03T08:27:21.076Z,30.10
2023-03-03T08:29:22.580Z,27.35
2023-03-03T08:31:39.717Z,28.70
2023-03-03T08:33:42.463Z,34.65
2023-03-03T08:35:44.731Z,26.58
2023-03-03T08:37:46.238Z,30.58
2023-03-03T08:39:47.719Z,30.90
2023-03-03T08:41:49.174Z,31.27
2023-03-03T08:43:50.664Z,33.17
2023-03-03T08:45:54.187Z,34.00
2023-03-03T08:47:56.577Z,32.78
2023-03-03T08:49:58.149Z,29.33
2023-03-03T08:52:00.753Z,28.85
2023-03-03T08:54:02.274Z,35.25
2023-03-03T08:56:05.207Z,32.83
2023-03-03T08:58:06.697Z,31.10
2023-03-03T09:00:11.968Z,35.13
2023-03-03T09:02:13.650Z,32.65
2023-03-03T09:04:15.182Z,33.83
2023-03-03T09:06:16.665Z,38.00
2023-03-03T09:08:18.176Z,37.67
2023-03-03T09:10:29.334Z,37.83
2023-03-03T09:12:35.259Z,44.28
2023-03-03T09:14:36.730Z,36.67
2023-03-03T09:16:41.769Z,40.05
2023-03-03T09:18:44.181Z,36.63
2023-03-03T09:20:48.335Z,37.20
2023-03-03T09:22:50.859Z,33.38
2023-03-03T09:24:57.181Z,29.80
2023-03-03T09:26:59.749Z,32.20
2023-03-03T09:29:11.382Z,30.88
2023-03-03T09:31:30.170Z,33.83
2023-03-03T09:33:42.410Z,33.65
2023-03-03T09:35:45.544Z,32.72
2023-03-03T09:37:52.158Z,31.92
2023-03-03T09:39:56.246Z,31.80
2023-03-03T09:42:19.247Z,37.33
2023-03-03T09:44:29.903Z,28.92
2023-03-03T09:46:49.569Z,27.48
2023-03-03T09:48:51.052Z,24.27
2023-03-03T09:51:18.394Z,32.38
2023-03-03T09:53:59.829Z,32.33
2023-03-03T09:56:16.716Z,29.42
2023-03-03T09:58:36.541Z,31.08
2023-03-03T10:01:10.544Z,33.50
2023-03-03T10:03:33.351Z,29.55
2023-03-03T10:05:42.886Z,25.48
2023-03-03T10:08:26.526Z,26.77
2023-03-03T10:10:46.027Z,24.42
2023-03-03T10:13:01.759Z,21.42
2023-03-03T10:15:12.237Z,24.23
2023-03-03T10:17:23.315Z,21.60
2023-03-03T10:19:48.106Z,14.95
2023-03-03T10:22:28.429Z,15.13
2023-03-03T10:24:35.526Z,12.60
2023-03-03T10:27:12.116Z,13.48
2023-03-03T10:29:23.176Z,11.82
2023-03-03T10:31:45.336Z,6.70
2023-03-03T10:34:00.501Z,6.00
2023-03-03T10:36:08.226Z,4.53
2023-03-03T10:38:32.154Z,8.75
2023-03-03T10:40:42.868Z,8.35
2023-03-03T10:42:51.174Z,5.30
2023-03-03T10:45:26.214Z,9.80
2023-03-03T10:47:37.244Z,5.95
2023-03-03T10:50:08.092Z,6.15
2023-03-03T10:52:34.264Z,8.35
2023-03-03T10:55:08.027Z,5.22
2023-03-03T10:57:38.350Z,7.18
2023-03-03T11:00:16.816Z,7.50
2023-03-03T11:07:11.857Z,3.67
2023-03-03T11:09:51.143Z,6.65
2023-03-03T11:12:04.128Z,5.40
2023-03-03T11:14:18.251Z,4.72
2023-03-03T11:16:31.837Z,7.47
2023-03-03T11:18:48.041Z,9.85
2023-03-03T11:21:02.089Z,6.45
2023-03-03T11:23:22.306Z,13.05
2023-03-03T11:25:55.542Z,7.28
2023-03-03T11:28:15.384Z,5.10
2023-03-03T11:30:17.783Z,5.13
2023-03-03T11:32:40.239Z,4.43
2023-03-03T11:35:19.392Z,3.63
2023-03-03T11:37:54.948Z,6.22
2023-03-03T11:40:01.517Z,7.28
2023-03-03T11:42:11.870Z,5.65
2023-03-03T11:44:27.380Z,4.40
2023-03-03T11:46:45.452Z,9.07
2023-03-03T11:49:08.298Z,5.90
2023-03-03T11:51:28.892Z,5.45
2023-03-03T11:53:39.860Z,3.33
2023-03-03T11:55:49.354Z,5.55
2023-03-03T11:58:00.988Z,8.05
2023-03-03T12:00:09.466Z,4.13
2023-03-03T12:02:29.182Z,3.15
2023-03-03T12:04:34.566Z,4.93
2023-03-03T12:07:22.053Z,4.10
2023-03-03T12:09:42.103Z,2.70
2023-03-03T12:12:09.944Z,4.57
2023-03-03T12:14:22.761Z,3.92
2023-03-03T12:17:13.547Z,7.43
2023-03-03T12:19:30.082Z,3.40
2023-03-03T12:21:46.383Z,3.35
2023-03-03T12:24:09.464Z,3.08
2023-03-03T12:26:25.830Z,6.22
2023-03-03T12:28:40.932Z,5.38
2023-03-03T12:31:10.616Z,3.60
2023-03-03T12:33:30.952Z,3.28
2023-03-03T12:36:03.000Z,5.93
2023-03-03T12:38:27.453Z,3.42
2023-03-03T12:40:33.914Z,4.55
2023-03-03T12:42:47.428Z,8.85
2023-03-03T12:44:51.847Z,6.88
2023-03-03T12:47:13.468Z,3.50
2023-03-03T12:49:15.033Z,3.15
2023-03-03T12:51:33.682Z,5.13
2023-03-03T12:56:01.224Z,3.10
2023-03-03T12:58:23.943Z,5.72
2023-03-03T13:00:28.474Z,6.30
2023-03-03T13:02:40.950Z,5.70
2023-03-03T13:05:20.880Z,2.90
2023-03-03T13:07:49.859Z,3.60
2023-03-03T13:09:57.435Z,4.38
2023-03-03T13:12:01.862Z,3.72
2023-03-03T13:14:36.643Z,4.85
2023-03-03T13:16:46.593Z,6.35
2023-03-03T13:18:50.983Z,4.50
2023-03-03T13:21:05.383Z,2.58
2023-03-03T13:23:25.629Z,3.47
2023-03-03T13:25:40.111Z,4.65
2023-03-03T13:27:45.579Z,7.80
2023-03-03T13:30:22.842Z,4.35
2023-03-03T13:32:37.428Z,4.43
2023-03-03T13:35:17.813Z,1.80
2023-03-03T13:37:24.255Z,2.83
2023-03-03T13:39:30.782Z,2.22
2023-03-03T13:41:46.971Z,5.43
2023-03-03T13:43:52.297Z,3.58
2023-03-03T13:45:59.774Z,2.38
2023-03-03T13:48:38.983Z,3.30
2023-03-03T13:50:50.913Z,2.67
2023-03-03T13:53:24.236Z,8.77
2023-03-03T13:55:40.819Z,7.03
2023-03-03T13:58:01.178Z,2.08
2023-03-03T14:00:24.126Z,2.10
2023-03-03T14:02:54.017Z,3.22
2023-03-03T14:05:04.585Z,5.75
2023-03-03T14:07:17.957Z,4.45
2023-03-03T14:09:46.510Z,5.07
2023-03-03T14:11:59.977Z,2.22
2023-03-03T14:14:18.277Z,5.75
2023-03-03T14:16:34.236Z,2.78
2023-03-03T14:18:39.807Z,3.80
2023-03-03T14:20:49.168Z,2.95
2023-03-03T14:23:01.049Z,4.80
2023-03-03T14:25:12.344Z,3.45
2023-03-03T14:27:24.818Z,4.93
2023-03-03T14:29:26.237Z,2.42
2023-03-03T14:31:38.295Z,5.07
2023-03-03T14:33:43.914Z,1.63
2023-03-03T14:36:09.615Z,4.65
2023-03-03T14:38:21.638Z,4.15
2023-03-03T14:40:34.254Z,2.78
2023-03-03T14:42:44.974Z,3.33
2023-03-03T14:44:46.337Z,5.88
2023-03-03T14:47:03.034Z,3.88
2023-03-03T14:49:13.337Z,1.95
2023-03-03T14:51:28.923Z,6.53
2023-03-03T14:53:35.656Z,2.25
2023-03-03T14:55:40.229Z,2.28
2023-03-03T14:57:46.975Z,3.45
2023-03-03T15:02:15.681Z,3.58
2023-03-03T15:04:17.098Z,2.90
2023-03-03T15:06:44.885Z,3.22
2023-03-03T15:08:47.981Z,3.90
2023-03-03T15:10:49.462Z,10.27
2023-03-03T15:12:52.296Z,4.20
2023-03-03T15:15:11.293Z,2.25
2023-03-03T15:17:23.818Z,3.50
2023-03-03T15:19:41.990Z,4.47
2023-03-03T15:21:58.786Z,3.50
2023-03-03T15:24:05.968Z,6.85
2023-03-03T15:26:28.796Z,4.28
2023-03-03T15:28:39.594Z,13.45
2023-03-03T15:30:51.151Z,6.70
2023-03-03T15:33:03.812Z,3.28
2023-03-03T15:35:17.521Z,3.70
2023-03-03T15:37:43.653Z,4.97
2023-03-03T15:40:09.301Z,3.80
2023-03-03T15:42:26.989Z,3.17
2023-03-03T15:44:49.974Z,2.95
2023-03-03T15:46:57.346Z,3.95
2023-03-03T15:49:17.205Z,11.52
2023-03-03T15:52:02.804Z,7.28
2023-03-03T15:54:31.018Z,5.38
2023-03-03T15:56:58.455Z,4.70
2023-03-03T15:59:21.580Z,2.83
2023-03-03T16:01:33.901Z,5.57
2023-03-03T16:03:45.668Z,3.50
2023-03-03T16:05:57.668Z,2.83
2023-03-03T16:08:13.918Z,3.72
2023-03-03T16:10:28.810Z,5.03
2023-03-03T16:12:55.126Z,3.28
2023-03-03T16:15:09.097Z,3.65
2023-03-03T16:17:27.700Z,2.83
2023-03-03T16:19:47.476Z,3.15
2023-03-03T16:22:15.591Z,3.60
2023-03-03T16:24:26.080Z,4.65
2023-03-03T16:26:31.537Z,9.88
2023-03-03T16:28:50.592Z,2.45
2023-03-03T16:30:54.753Z,4.18
2023-03-03T16:33:15.508Z,4.10
2023-03-03T16:35:39.672Z,2.15
2023-03-03T16:37:59.675Z,2.05
2023-03-03T16:40:29.008Z,2.67
2023-03-03T16:42:33.230Z,6.43
2023-03-03T16:44:47.386Z,3.17
2023-03-03T16:46:50.026Z,6.05
2023-03-03T16:48:56.629Z,2.30
2023-03-03T16:51:13.024Z,6.47
2023-03-03T16:53:33.144Z,4.20
2023-03-03T16:55:43.830Z,5.22
2023-03-03T16:57:54.015Z,2.50
2023-03-03T17:00:19.454Z,3.42
2023-03-03T17:03:12.081Z,7.32
2023-03-03T17:05:33.401Z,8.25
2023-03-03T17:07:56.965Z,6.57
2023-03-03T17:10:04.591Z,6.65
2023-03-03T17:12:27.837Z,4.70
2023-03-03T17:14:55.569Z,4.28
2023-03-03T17:17:04.015Z,4.95
2023-03-03T17:19:25.716Z,8.25
2023-03-03T17:21:45.796Z,6.32
2023-03-03T17:23:53.213Z,8.20
2023-03-03T17:26:04.394Z,12.57
2023-03-03T17:28:30.640Z,4.00
2023-03-03T17:31:10.045Z,5.38
2023-03-03T17:33:36.739Z,8.45
2023-03-03T17:35:47.132Z,8.55
2023-03-03T17:37:58.098Z,6.85
2023-03-03T17:40:20.050Z,11.80
2023-03-03T17:42:31.309Z,8.57
2023-03-03T17:45:03.372Z,6.78
2023-03-03T17:47:10.132Z,10.48
2023-03-03T17:49:45.788Z,9.90
2023-03-03T17:52:07.433Z,10.48
2023-03-03T17:54:26.406Z,13.60
2023-03-03T17:56:52.676Z,7.60
2023-03-03T17:59:22.136Z,11.02
2023-03-03T18:01:47.609Z,11.20
2023-03-03T18:04:36.104Z,14.88
2023-03-03T18:07:15.162Z,15.45
2023-03-03T18:09:37.305Z,9.07
2023-03-03T18:11:59.924Z,17.48
2023-03-03T18:14:49.873Z,10.25
2023-03-03T18:16:51.284Z,10.70
2023-03-03T18:19:31.509Z,13.10
2023-03-03T18:22:02.999Z,12.07
2023-03-03T18:24:28.010Z,16.15
2023-03-03T18:26:40.638Z,15.82
2023-03-03T18:28:49.398Z,17.23
2023-03-03T18:35:24.970Z,14.15
2023-03-03T18:37:29.746Z,24.17
2023-03-03T18:39:46.275Z,17.45
2023-03-03T18:42:16.967Z,21.02
2023-03-03T18:44:29.115Z,20.25
2023-03-03T18:46:36.708Z,15.45
2023-03-03T18:48:57.546Z,18.83
2023-03-03T18:50:59.014Z,19.02
2023-03-03T18:53:18.731Z,16.35
2023-03-03T18:55:26.048Z,14.95
2023-03-03T18:57:27.809Z,20.60
2023-03-03T18:59:35.247Z,29.58
2023-03-03T19:01:41.847Z,18.23
2023-03-03T19:03:47.058Z,11.05
2023-03-03T19:05:54.016Z,16.73
2023-03-03T19:08:02.958Z,19.25
2023-03-03T19:10:28.047Z,19.98
2023-03-03T19:12:56.850Z,15.27
2023-03-03T19:14:58.640Z,16.98
2023-03-03T19:17:22.777Z,20.23
2023-03-03T19:19:54.000Z,18.10
2023-03-03T19:22:26.174Z,19.33
2023-03-03T19:24:31.350Z,19.98
2023-03-03T19:27:05.852Z,20.05
2023-03-03T19:29:13.348Z,17.42
2023-03-03T19:31:38.380Z,15.27
2023-03-03T19:33:42.815Z,15.05
2023-03-03T19:35:51.381Z,20.52
2023-03-03T19:38:11.674Z,17.75
2023-03-03T19:40:19.298Z,16.80
2023-03-03T19:42:50.240Z,16.08
2023-03-03T19:45:19.866Z,22.98
2023-03-03T19:47:33.235Z,19.08
2023-03-03T19:49:44.067Z,18.30
2023-03-03T19:52:31.448Z,25.85
2023-03-03T19:55:00.634Z,17.88
2023-03-03T19:57:04.697Z,17.85
2023-03-03T19:59:44.949Z,28.98
2023-03-03T20:02:13.724Z,12.85
2023-03-03T20:04:40.133Z,18.55
2023-03-03T20:07:09.586Z,19.60
2023-03-03T20:09:50.225Z,29.02
2023-03-03T20:12:47.579Z,21.90
2023-03-03T20:14:55.234Z,18.93
2023-03-03T20:17:11.700Z,17.73
2023-03-03T20:19:45.631Z,16.33
2023-03-03T20:22:08.939Z,14.73
2023-03-03T20:24:26.134Z,21.80
2023-03-03T20:26:52.356Z,26.33
2023-03-03T20:29:02.927Z,26.63
2023-03-03T20:31:20.182Z,22.42
2023-03-03T20:33:44.177Z,24.55
2023-03-03T20:36:06.910Z,26.35
2023-03-03T20:38:20.968Z,14.50
2023-03-03T20:40:47.479Z,19.35
2023-03-03T20:43:06.416Z,21.90
2023-03-03T20:45:29.770Z,20.02
2023-03-03T20:47:46.454Z,26.85
2023-03-03T20:50:25.591Z,24.73
2023-03-03T20:53:02.360Z,24.23
2023-03-03T20:55:32.012Z,19.60
2023-03-03T20:57:48.731Z,27.80
2023-03-03T21:00:01.702Z,22.08
2023-03-03T21:02:05.825Z,22.10
2023-03-03T21:04:27.798Z,24.52
2023-03-03T21:06:38.900Z,26.13
2023-03-03T21:08:40.344Z,22.98
2023-03-03T21:10:42.673Z,27.88
2023-03-03T21:12:44.307Z,23.35
2023-03-03T21:14:59.524Z,19.48
2023-03-03T21:17:11.276Z,26.55
2023-03-03T21:19:23.192Z,15.88
2023-03-03T21:21:26.457Z,24.65
2023-03-03T21:23:27.963Z,20.83
2023-03-03T21:25:41.742Z,19.45
2023-03-03T21:27:43.196Z,21.45
2023-03-03T21:29:44.657Z,18.67
2023-03-03T21:31:53.387Z,21.52
2023-03-03T21:35:58.605Z,28.58
2023-03-03T21:38:00.095Z,30.60
2023-03-03T21:40:26.257Z,22.42
2023-03-03T21:42:42.385Z,29.10
2023-03-03T21:44:52.217Z,18.15
2023-03-03T21:46:53.699Z,22.50
2023-03-03T21:48:55.132Z,14.57
2023-03-03T21:50:56.780Z,14.52
2023-03-03T21:52:58.237Z,25.25
2023-03-03T21:54:59.742Z,21.08
2023-03-03T21:57:01.224Z,27.75
2023-03-03T21:59:02.667Z,19.17
2023-03-03T22:01:05.964Z,25.67
2023-03-03T22:03:07.444Z,31.15
2023-03-03T22:05:08.994Z,17.95
2023-03-03T22:07:10.843Z,26.10
2023-03-03T22:09:12.420Z,17.63
2023-03-03T22:11:15.554Z,23.90
2023-03-03T22:13:20.096Z,23.48
2023-03-03T22:15:21.777Z,19.20
2023-03-03T22:17:25.471Z,20.23
2023-03-03T22:19:27.044Z,24.75
2023-03-03T22:21:28.878Z,16.88
2023-03-03T22:23:30.336Z,25.88
2023-03-03T22:25:32.087Z,21.55
2023-03-03T22:27:33.691Z,23.95
2023-03-03T22:29:35.161Z,15.80
2023-03-03T22:31:37.340Z,18.05
2023-03-03T22:33:39.109Z,21.25
2023-03-03T22:35:40.706Z,24.63
2023-03-03T22:37:42.209Z,15.13
2023-03-03T22:39:43.699Z,19.88
2023-03-03T22:41:45.184Z,17.30
2023-03-03T22:43:47.922Z,13.95
2023-03-03T22:45:50.528Z,15.13
2023-03-03T22:47:52.119Z,24.25
2023-03-03T22:49:53.806Z,20.38
2023-03-03T22:51:58.666Z,11.95
2023-03-03T22:54:00.189Z,16.25
2023-03-03T22:56:01.763Z,26.60
2023-03-03T22:58:09.345Z,15.98
2023-03-03T23:00:11.874Z,18.17
2023-03-03T23:02:13.374Z,16.05
2023-03-03T23:04:14.912Z,22.05
2023-03-03T23:06:16.497Z,17.63
2023-03-03T23:08:19.289Z,14.43
2023-03-03T23:10:20.843Z,22.75
2023-03-03T23:12:23.443Z,16.33
2023-03-03T23:14:25.520Z,17.38
2023-03-03T23:16:27.135Z,30.30
2023-03-03T23:18:29.515Z,13.30
2023-03-03T23:20:31.680Z,16.15
2023-03-03T23:22:33.173Z,13.93
2023-03-03T23:24:34.680Z,13.77
2023-03-03T23:26:36.144Z,15.85
2023-03-03T23:28:37.637Z,11.23
2023-03-03T23:30:39.083Z,13.02
2023-03-03T23:32:41.287Z,14.38
2023-03-03T23:34:42.754Z,19.15
2023-03-03T23:36:44.210Z,10.90
2023-03-03T23:38:45.742Z,24.52
2023-03-03T23:40:47.197Z,12.10
2023-03-03T23:42:48.656Z,18.27
2023-03-03T23:44:50.556Z,19.65
2023-03-03T23:46:52.153Z,14.77
2023-03-03T23:48:53.698Z,19.55
2023-03-03T23:50:55.140Z,24.50
2023-03-03T23:52:56.676Z,14.32
2023-03-03T23:54:58.140Z,9.73
2023-03-03T23:56:59.735Z,15.27
2023-03-03T23:59:01.302Z,18.70
